createdAt,value
2022-09-22T00:00:08.424Z,48.83
2022-09-22T00:02:57.668Z,50.43
2022-09-22T00:05:46.046Z,48.53
2022-09-22T00:08:45.260Z,47.47
2022-09-22T00:11:36.424Z,46.10
2022-09-22T00:14:28.834Z,45.00
2022-09-22T00:17:17.304Z,43.53
2022-09-22T00:20:06.172Z,42.27
2022-09-22T00:22:55.649Z,40.80
2022-09-22T00:25:43.944Z,41.40
2022-09-22T00:28:39.226Z,39.83
2022-09-22T00:31:29.970Z,41.37
2022-09-22T00:34:20.712Z,40.83
2022-09-22T00:37:09.086Z,41.17
2022-09-22T00:39:57.405Z,40.97
2022-09-22T00:42:54.837Z,41.20
2022-09-22T00:45:43.928Z,43.00
2022-09-22T00:48:49.668Z,44.03
2022-09-22T00:51:41.451Z,46.27
2022-09-22T00:54:30.519Z,46.27
2022-09-22T00:57:32.262Z,44.50
2022-09-22T01:00:20.977Z,45.30
2022-09-22T01:03:24.050Z,44.97
2022-09-22T01:06:20.290Z,45.03
2022-09-22T01:09:09.857Z,44.87
2022-09-22T01:12:05.798Z,44.40
2022-09-22T01:15:06.435Z,44.37
2022-09-22T01:18:12.860Z,44.07
2022-09-22T01:21:20.477Z,43.97
2022-09-22T01:24:47.840Z,43.93
2022-09-22T01:28:07.193Z,46.03
2022-09-22T01:31:01.943Z,47.90
2022-09-22T01:33:54.307Z,48.50
2022-09-22T01:36:50.829Z,46.90
2022-09-22T01:39:43.645Z,48.23
2022-09-22T01:42:38.449Z,48.63
2022-09-22T01:45:31.870Z,48.43
2022-09-22T01:48:26.513Z,49.57
2022-09-22T01:51:19.770Z,49.83
2022-09-22T01:54:15.340Z,49.47
2022-09-22T01:57:12.347Z,49.17
2022-09-22T02:00:08.639Z,48.90
2022-09-22T02:03:08.590Z,49.00
2022-09-22T02:06:02.796Z,50.63
2022-09-22T02:08:56.791Z,52.13
2022-09-22T02:11:45.590Z,51.37
2022-09-22T02:14:34.160Z,51.23
2022-09-22T02:17:32.975Z,51.70
2022-09-22T02:20:25.833Z,53.83
2022-09-22T02:23:15.767Z,53.27
2022-09-22T02:26:05.586Z,54.43
2022-09-22T02:28:56.739Z,56.83
2022-09-22T02:31:46.310Z,57.57
2022-09-22T02:34:41.226Z,57.63
2022-09-22T02:37:38.296Z,59.83
2022-09-22T02:40:31.905Z,58.97
2022-09-22T02:43:25.524Z,61.03
2022-09-22T02:46:21.344Z,61.57
2022-09-22T02:49:14.980Z,62.00
2022-09-22T02:52:03.628Z,63.40
2022-09-22T02:54:53.095Z,61.93
2022-09-22T02:57:52.252Z,64.60
2022-09-22T03:00:40.724Z,64.60
2022-09-22T03:03:38.126Z,65.37
2022-09-22T03:06:26.444Z,67.70
2022-09-22T03:09:23.757Z,67.77
2022-09-22T03:12:12.440Z,68.47
2022-09-22T03:15:12.558Z,68.40
2022-09-22T03:18:01.089Z,69.33
2022-09-22T03:20:52.479Z,69.37
2022-09-22T03:23:40.877Z,68.00
2022-09-22T03:26:38.364Z,68.90
2022-09-22T03:29:26.804Z,68.13
2022-09-22T03:32:26.012Z,68.90
2022-09-22T03:35:14.314Z,69.27
2022-09-22T03:38:12.030Z,68.57
2022-09-22T03:41:01.468Z,69.43
2022-09-22T03:43:58.752Z,67.87
2022-09-22T03:46:47.106Z,67.57
2022-09-22T03:49:45.894Z,69.97
2022-09-22T03:52:34.904Z,70.10
2022-09-22T03:55:23.221Z,68.57
2022-09-22T03:58:20.006Z,70.67
2022-09-22T04:01:10.334Z,69.90
2022-09-22T04:04:04.764Z,70.17
2022-09-22T04:06:54.577Z,64.83
2022-09-22T04:09:49.041Z,68.73
2022-09-22T04:12:37.890Z,69.83
2022-09-22T04:15:26.396Z,67.07
2022-09-22T04:18:16.123Z,64.47
2022-09-22T04:21:05.633Z,65.17
2022-09-22T04:23:55.365Z,66.80
2022-09-22T04:27:15.252Z,60.73
2022-09-22T04:29:58.049Z,61.77
2022-09-22T04:32:46.537Z,62.40
2022-09-22T04:35:44.059Z,60.87
2022-09-22T04:38:32.607Z,61.37
2022-09-22T04:41:31.865Z,62.60
2022-09-22T04:44:20.330Z,61.00
2022-09-22T04:47:17.767Z,60.20
2022-09-22T04:50:06.684Z,59.00
2022-09-22T04:52:56.813Z,58.63
2022-09-22T04:55:51.893Z,57.60
2022-09-22T04:58:41.833Z,57.73
2022-09-22T05:01:30.431Z,59.80
2022-09-22T05:04:18.961Z,59.23
2022-09-22T05:07:07.325Z,58.40
2022-09-22T05:09:55.681Z,58.37
2022-09-22T05:12:45.305Z,57.27
2022-09-22T05:15:35.218Z,58.20
2022-09-22T05:18:23.733Z,57.40
2022-09-22T05:21:21.403Z,55.50
2022-09-22T05:24:09.948Z,55.23
2022-09-22T05:26:58.337Z,54.20
2022-09-22T05:29:47.265Z,50.03
2022-09-22T05:32:37.054Z,49.57
2022-09-22T05:35:26.310Z,48.40
2022-09-22T05:38:14.699Z,46.67
2022-09-22T05:41:03.806Z,45.67
2022-09-22T05:43:52.235Z,46.80
2022-09-22T05:46:40.647Z,47.90
2022-09-22T05:49:33.094Z,47.87
2022-09-22T05:52:21.543Z,48.20
2022-09-22T05:55:10.950Z,48.27
2022-09-22T05:58:11.834Z,49.10
2022-09-22T06:01:00.400Z,48.57
2022-09-22T06:03:57.976Z,47.00
2022-09-22T06:06:47.918Z,46.10
2022-09-22T06:09:45.254Z,45.63
2022-09-22T06:12:33.655Z,44.80
2022-09-22T06:15:33.974Z,42.90
2022-09-22T06:18:24.950Z,39.73
2022-09-22T06:21:13.460Z,37.60
2022-09-22T06:24:09.168Z,36.60
2022-09-22T06:26:57.553Z,35.20
2022-09-22T06:29:45.972Z,33.23
2022-09-22T06:32:34.399Z,31.83
2022-09-22T06:35:22.918Z,30.07
2022-09-22T06:38:15.015Z,29.97
2022-09-22T06:41:07.430Z,30.40
2022-09-22T06:43:56.288Z,31.17
2022-09-22T06:46:45.827Z,32.20
2022-09-22T06:49:43.266Z,30.97
2022-09-22T06:52:31.892Z,30.93
2022-09-22T06:55:20.947Z,29.83
2022-09-22T06:58:21.999Z,28.07
2022-09-22T07:01:10.875Z,28.97
2022-09-22T07:04:02.730Z,27.90
2022-09-22T07:06:51.514Z,28.13
2022-09-22T07:09:48.886Z,26.93
2022-09-22T07:12:37.224Z,24.57
2022-09-22T07:15:27.983Z,22.70
2022-09-22T07:18:16.579Z,20.20
2022-09-22T07:21:15.776Z,18.40
2022-09-22T07:24:08.365Z,17.20
2022-09-22T07:26:56.873Z,16.63
2022-09-22T07:29:49.472Z,16.03
2022-09-22T07:32:39.056Z,15.40
2022-09-22T07:35:35.332Z,15.23
2022-09-22T07:38:24.387Z,14.70
2022-09-22T07:41:14.821Z,15.37
2022-09-22T07:44:23.832Z,15.47
2022-09-22T07:47:12.258Z,15.27
2022-09-22T07:50:04.928Z,15.90
2022-09-22T07:52:53.423Z,15.57
2022-09-22T07:55:41.799Z,14.00
2022-09-22T07:58:30.951Z,13.90
2022-09-22T08:01:29.137Z,13.00
2022-09-22T08:04:22.886Z,12.60
2022-09-22T08:07:15.212Z,12.10
2022-09-22T08:10:03.789Z,11.63
2022-09-22T08:12:53.071Z,12.33
2022-09-22T08:15:42.287Z,10.87
2022-09-22T08:18:40.924Z,11.20
2022-09-22T08:21:33.000Z,10.97
2022-09-22T08:24:23.847Z,10.27
2022-09-22T08:27:12.521Z,9.13
2022-09-22T08:30:04.205Z,9.07
2022-09-22T08:32:53.612Z,8.03
2022-09-22T08:35:53.503Z,7.70
2022-09-22T08:38:43.021Z,7.27
2022-09-22T08:41:41.591Z,7.70
2022-09-22T08:44:37.481Z,6.80
2022-09-22T08:47:50.580Z,8.27
2022-09-22T08:51:06.953Z,8.13
2022-09-22T08:54:00.920Z,7.57
2022-09-22T08:57:03.233Z,7.33
2022-09-22T08:59:57.163Z,6.63
2022-09-22T09:02:50.786Z,7.03
2022-09-22T09:06:04.484Z,6.83
2022-09-22T09:09:28.163Z,6.63
2022-09-22T09:12:29.648Z,5.83
2022-09-22T09:15:41.764Z,6.43
2022-09-22T09:18:34.358Z,7.03
2022-09-22T13:14:45.308Z,4.00
2022-09-22T13:17:34.532Z,4.05
2022-09-22T13:20:25.630Z,5.05
2022-09-22T13:23:20.196Z,4.25
2022-09-22T13:26:09.388Z,4.25
2022-09-22T13:29:03.358Z,4.88
2022-09-22T13:31:55.500Z,4.18
2022-09-22T13:34:43.854Z,4.20
2022-09-22T13:37:41.026Z,5.00
2022-09-22T13:40:34.933Z,4.10
2022-09-22T13:43:29.591Z,4.65
2022-09-22T13:46:24.178Z,4.78
2022-09-22T13:49:19.250Z,5.68
2022-09-22T13:52:10.591Z,6.43
2022-09-22T13:55:01.668Z,6.30
2022-09-22T13:57:50.228Z,4.93
2022-09-22T14:01:08.634Z,5.20
2022-09-22T14:03:52.675Z,4.60
2022-09-22T14:06:42.505Z,4.88
2022-09-22T14:09:39.899Z,5.55
2022-09-22T14:12:29.639Z,5.43
2022-09-22T14:15:43.495Z,5.30
2022-09-22T14:18:32.502Z,4.90
2022-09-22T14:21:27.159Z,5.20
2022-09-22T14:24:17.504Z,5.45
2022-09-22T14:27:20.775Z,5.33
2022-09-22T14:30:17.755Z,5.80
2022-09-22T14:33:06.379Z,5.60
2022-09-22T14:36:08.205Z,5.70
2022-09-22T14:39:10.185Z,6.00
2022-09-22T14:42:09.051Z,6.70
2022-09-22T14:45:17.886Z,7.00
2022-09-22T14:48:18.505Z,6.73
2022-09-22T14:51:10.466Z,6.93
2022-09-22T14:54:03.900Z,7.40
2022-09-22T14:56:52.364Z,7.37
2022-09-22T15:00:15.320Z,7.30
2022-09-22T15:03:07.599Z,7.27
2022-09-22T15:06:07.428Z,7.80
2022-09-22T15:08:55.708Z,8.47
2022-09-22T15:11:48.997Z,8.83
2022-09-22T15:14:43.978Z,9.13
2022-09-22T15:18:04.576Z,9.27
2022-09-22T15:20:57.427Z,10.07
2022-09-22T15:23:49.418Z,10.47
2022-09-22T15:26:38.668Z,10.93
2022-09-22T15:29:36.357Z,11.10
2022-09-22T15:32:24.855Z,11.33
2022-09-22T15:35:15.683Z,10.80
2022-09-22T15:38:04.766Z,10.87
2022-09-22T15:41:02.053Z,11.97
2022-09-22T15:43:50.607Z,12.40
2022-09-22T15:46:51.549Z,12.73
2022-09-22T15:49:40.265Z,13.73
2022-09-22T15:52:36.015Z,14.33
2022-09-22T15:55:25.520Z,14.73
2022-09-22T15:58:22.936Z,14.83
2022-09-22T16:01:11.557Z,15.50
2022-09-22T16:04:07.089Z,16.17
2022-09-22T16:07:01.317Z,16.70
2022-09-22T16:09:51.053Z,16.30
2022-09-22T16:12:41.680Z,15.97
2022-09-22T16:15:32.287Z,15.40
2022-09-22T16:18:20.612Z,15.20
2022-09-22T16:21:22.305Z,15.27
2022-09-22T16:24:12.057Z,15.10
2022-09-22T16:27:07.577Z,15.37
2022-09-22T16:29:56.001Z,15.60
2022-09-22T16:32:44.406Z,16.30
2022-09-22T16:35:32.651Z,16.60
2022-09-22T16:38:20.934Z,16.67
2022-09-22T16:41:20.834Z,17.47
2022-09-22T16:44:10.530Z,18.23
2022-09-22T16:46:59.216Z,17.77
2022-09-22T16:49:51.485Z,18.27
2022-09-22T16:52:40.005Z,19.47
2022-09-22T16:55:37.751Z,19.40
2022-09-22T16:58:26.141Z,20.80
2022-09-22T17:01:19.631Z,22.20
2022-09-22T17:04:09.668Z,21.77
2022-09-22T17:06:58.371Z,22.07
2022-09-22T17:09:47.389Z,23.17
2022-09-22T17:12:36.589Z,23.00
2022-09-22T17:15:24.958Z,23.77
2022-09-22T17:18:14.581Z,24.33
2022-09-22T17:21:09.309Z,24.23
2022-09-22T17:24:00.632Z,24.77
2022-09-22T17:26:52.209Z,23.33
2022-09-22T17:29:40.506Z,23.77
2022-09-22T17:32:29.480Z,22.03
2022-09-22T17:35:19.267Z,21.00
2022-09-22T17:38:07.495Z,20.23
2022-09-22T17:41:07.291Z,20.50
2022-09-22T17:43:57.588Z,19.33
2022-09-22T17:47:11.428Z,20.03
2022-09-22T17:50:17.188Z,19.80
2022-09-22T17:53:24.568Z,19.67
2022-09-22T17:56:13.414Z,19.87
2022-09-22T17:59:01.774Z,19.67
2022-09-22T18:01:53.525Z,20.10
2022-09-22T18:04:42.809Z,21.40
2022-09-22T18:07:35.172Z,21.47
2022-09-22T18:10:32.505Z,21.80
2022-09-22T18:13:21.024Z,22.40
2022-09-22T18:16:21.226Z,22.10
2022-09-22T18:19:10.098Z,23.77
2022-09-22T18:21:58.762Z,23.97
2022-09-22T18:24:48.442Z,23.93
2022-09-22T18:27:39.132Z,24.57
2022-09-22T18:30:28.424Z,25.07
2022-09-22T18:33:18.633Z,25.23
2022-09-22T18:36:07.594Z,26.43
2022-09-22T18:38:56.442Z,27.37
2022-09-22T18:41:45.058Z,27.50
2022-09-22T18:44:35.261Z,27.33
2022-09-22T18:47:25.155Z,26.57
2022-09-22T18:50:13.861Z,28.00
2022-09-22T18:53:02.290Z,27.87
2022-09-22T18:55:52.856Z,28.17
2022-09-22T18:58:41.238Z,28.70
2022-09-22T19:01:34.539Z,28.20
2022-09-22T19:04:24.467Z,29.23
2022-09-22T19:07:30.230Z,30.17
2022-09-22T19:10:21.966Z,29.43
2022-09-22T19:13:11.230Z,29.73
2022-09-22T19:15:59.672Z,29.27
2022-09-22T19:18:49.957Z,30.37
2022-09-22T19:21:38.914Z,30.80
2022-09-22T19:24:27.204Z,30.70
2022-09-22T19:27:18.594Z,30.80
2022-09-22T19:30:08.320Z,31.00
2022-09-22T19:32:57.041Z,30.43
2022-09-22T19:35:46.758Z,30.20
2022-09-22T19:38:35.161Z,30.83
2022-09-22T19:41:26.962Z,29.30
2022-09-22T19:44:16.590Z,29.90
2022-09-22T19:47:04.992Z,29.30
2022-09-22T19:49:53.369Z,28.80
2022-09-22T19:52:43.084Z,29.10
2022-09-22T19:55:31.547Z,29.07
2022-09-22T19:58:19.896Z,29.57
2022-09-22T20:01:08.963Z,29.23
2022-09-22T20:03:57.456Z,28.33
2022-09-22T20:06:45.998Z,28.27
2022-09-22T20:09:35.958Z,27.30
2022-09-22T20:12:24.337Z,26.67
2022-09-22T20:15:15.653Z,26.33
2022-09-22T20:18:05.436Z,27.77
2022-09-22T20:20:55.572Z,27.70
2022-09-22T20:23:43.953Z,26.27
2022-09-22T20:26:33.885Z,26.50
2022-09-22T20:29:22.215Z,27.60
2022-09-22T20:32:10.572Z,28.00
2022-09-22T20:34:59.039Z,28.33
2022-09-22T20:37:47.488Z,27.87
2022-09-22T20:40:36.134Z,30.20
2022-09-22T20:43:27.619Z,31.50
2022-09-22T20:46:16.874Z,34.00
2022-09-22T20:49:06.312Z,34.07
2022-09-22T20:51:56.525Z,35.43
2022-09-22T20:54:46.577Z,36.43
2022-09-22T20:57:34.836Z,37.57
2022-09-22T21:00:25.060Z,37.23
2022-09-22T21:03:13.399Z,39.37
2022-09-22T21:06:02.691Z,38.87
2022-09-22T21:09:09.518Z,39.67
2022-09-22T21:11:58.207Z,38.47
2022-09-22T21:14:46.519Z,39.13
2022-09-22T21:17:36.231Z,38.23
2022-09-22T21:20:24.526Z,39.73
2022-09-22T21:23:13.894Z,39.70
2022-09-22T21:26:05.769Z,41.00
2022-09-22T21:28:54.337Z,40.53
2022-09-22T21:31:42.760Z,40.17
2022-09-22T21:34:32.549Z,39.43
2022-09-22T21:37:23.551Z,38.50
2022-09-22T21:40:11.931Z,39.67
2022-09-22T21:43:00.328Z,40.63
2022-09-22T21:45:48.949Z,39.63
2022-09-22T21:48:37.699Z,40.87
2022-09-22T21:51:27.755Z,40.60
2022-09-22T21:54:18.209Z,40.53
2022-09-22T21:57:06.579Z,39.97
2022-09-22T21:59:56.750Z,42.37
2022-09-22T22:03:02.707Z,41.27
2022-09-22T22:05:51.033Z,40.77
2022-09-22T22:08:42.954Z,43.10
2022-09-22T22:11:33.725Z,44.17
2022-09-22T22:14:23.353Z,45.73
2022-09-22T22:17:11.670Z,43.90
2022-09-22T22:19:59.954Z,42.07
2022-09-22T22:22:48.240Z,44.47
2022-09-22T22:25:38.994Z,44.67
2022-09-22T22:28:27.260Z,44.33
2022-09-22T22:31:17.715Z,46.03
2022-09-22T22:34:07.143Z,46.83
2022-09-22T22:36:56.451Z,48.77
2022-09-22T22:39:44.793Z,47.73
2022-09-22T22:42:34.471Z,49.77
2022-09-22T22:45:22.742Z,49.40
2022-09-22T22:48:11.760Z,50.30
2022-09-22T22:51:02.531Z,50.13
2022-09-22T22:53:55.771Z,50.40
2022-09-22T22:56:46.821Z,52.07
2022-09-22T22:59:38.604Z,51.30
2022-09-22T23:02:26.922Z,52.10
2022-09-22T23:05:15.219Z,51.70
2022-09-22T23:08:03.552Z,50.20
2022-09-22T23:10:51.966Z,52.07
2022-09-22T23:13:41.268Z,50.53
2022-09-22T23:16:33.294Z,51.17
2022-09-22T23:19:21.688Z,49.73
2022-09-22T23:22:10.344Z,48.63
2022-09-22T23:24:58.840Z,50.40
2022-09-22T23:27:48.838Z,48.47
2022-09-22T23:30:37.215Z,48.63
2022-09-22T23:33:28.908Z,48.33
2022-09-22T23:36:18.774Z,49.07
2022-09-22T23:39:07.267Z,49.23
2022-09-22T23:41:55.754Z,47.30
2022-09-22T23:44:44.196Z,47.33
2022-09-22T23:47:33.010Z,47.43
2022-09-22T23:50:23.466Z,46.63
2022-09-22T23:53:11.997Z,48.20
2022-09-22T23:56:00.556Z,48.50
2022-09-22T23:58:49.108Z,48.10
